sensor_id;sensor_type;location;lat;lon;timestamp;pressure;altitude;pressure_sealevel;temperature;humidity
43125;BME280;49182;50.788;7.318;2022-07-23T00:01:34;100981.75;;;18.61;74.04
43125;BME280;49182;50.788;7.318;2022-07-23T00:04:01;101000.25;;;18.70;74.42
43125;BME280;49182;50.788;7.318;2022-07-23T00:06:28;101000.59;;;18.67;74.84
43125;BME280;49182;50.788;7.318;2022-07-23T00:08:56;101011.97;;;18.69;74.97
43125;BME280;49182;50.788;7.318;2022-07-23T00:11:23;101004.59;;;18.71;74.83
43125;BME280;49182;50.788;7.318;2022-07-23T00:13:50;101003.94;;;18.69;74.83
43125;BME280;49182;50.788;7.318;2022-07-23T00:16:16;101007.47;;;18.70;75.02
43125;BME280;49182;50.788;7.318;2022-07-23T00:18:43;101009.94;;;18.71;75.33
43125;BME280;49182;50.788;7.318;2022-07-23T00:21:10;101001.28;;;18.69;75.31
43125;BME280;49182;50.788;7.318;2022-07-23T00:23:36;101003.41;;;18.74;75.04
43125;BME280;49182;50.788;7.318;2022-07-23T00:26:04;100998.22;;;18.72;74.76
43125;BME280;49182;50.788;7.318;2022-07-23T00:28:31;101001.06;;;18.71;74.74
43125;BME280;49182;50.788;7.318;2022-07-23T00:30:57;100998.59;;;18.69;75.38
43125;BME280;49182;50.788;7.318;2022-07-23T00:33:24;100991.91;;;18.65;75.45
43125;BME280;49182;50.788;7.318;2022-07-23T00:35:51;100984.56;;;18.67;75.56
43125;BME280;49182;50.788;7.318;2022-07-23T00:38:17;100994.28;;;18.60;75.59
43125;BME280;49182;50.788;7.318;2022-07-23T00:40:44;100989.94;;;18.59;75.62
43125;BME280;49182;50.788;7.318;2022-07-23T00:43:12;100976.25;;;18.54;75.68
43125;BME280;49182;50.788;7.318;2022-07-23T00:45:39;100979.75;;;18.54;76.17
43125;BME280;49182;50.788;7.318;2022-07-23T00:48:07;100980.31;;;18.50;76.68
43125;BME280;49182;50.788;7.318;2022-07-23T00:50:33;100975.81;;;18.42;77.10
43125;BME280;49182;50.788;7.318;2022-07-23T00:53:00;100966.84;;;18.35;77.38
43125;BME280;49182;50.788;7.318;2022-07-23T00:55:27;100975.22;;;18.32;77.50
43125;BME280;49182;50.788;7.318;2022-07-23T00:57:55;100975.69;;;18.36;77.85
43125;BME280;49182;50.788;7.318;2022-07-23T01:00:23;100991.28;;;18.32;77.88
43125;BME280;49182;50.788;7.318;2022-07-23T01:02:49;100975.28;;;18.16;78.45
43125;BME280;49182;50.788;7.318;2022-07-23T01:05:16;100996.66;;;18.24;78.00
43125;BME280;49182;50.788;7.318;2022-07-23T01:07:43;100993.97;;;18.24;77.94
43125;BME280;49182;50.788;7.318;2022-07-23T01:10:09;100984.13;;;18.25;78.29
43125;BME280;49182;50.788;7.318;2022-07-23T01:12:38;100995.47;;;18.27;78.08
43125;BME280;49182;50.788;7.318;2022-07-23T01:15:05;100990.47;;;18.24;78.12
43125;BME280;49182;50.788;7.318;2022-07-23T01:17:34;100992.13;;;18.25;77.74
43125;BME280;49182;50.788;7.318;2022-07-23T01:20:00;100971.44;;;18.18;77.78
43125;BME280;49182;50.788;7.318;2022-07-23T01:22:29;100984.94;;;18.25;78.20
43125;BME280;49182;50.788;7.318;2022-07-23T01:24:56;100978.78;;;18.25;78.22
43125;BME280;49182;50.788;7.318;2022-07-23T01:27:24;100981.31;;;18.18;78.13
43125;BME280;49182;50.788;7.318;2022-07-23T01:29:57;100986.34;;;18.13;78.35
43125;BME280;49182;50.788;7.318;2022-07-23T01:32:24;100980.88;;;17.98;78.83
43125;BME280;49182;50.788;7.318;2022-07-23T01:34:51;100993.38;;;18.06;79.04
43125;BME280;49182;50.788;7.318;2022-07-23T01:37:18;100980.88;;;18.06;78.85
43125;BME280;49182;50.788;7.318;2022-07-23T01:39:47;100983.00;;;18.11;78.76
43125;BME280;49182;50.788;7.318;2022-07-23T01:42:14;100973.16;;;18.11;78.82
43125;BME280;49182;50.788;7.318;2022-07-23T01:44:41;100963.97;;;18.14;79.04
43125;BME280;49182;50.788;7.318;2022-07-23T01:47:13;100944.63;;;18.04;79.13
43125;BME280;49182;50.788;7.318;2022-07-23T01:49:40;100957.13;;;18.11;78.98
43125;BME280;49182;50.788;7.318;2022-07-23T01:52:26;100931.78;;;17.99;78.85
43125;BME280;49182;50.788;7.318;2022-07-23T01:54:55;100954.31;;;18.05;78.74
43125;BME280;49182;50.788;7.318;2022-07-23T01:57:21;100951.66;;;17.97;79.14
43125;BME280;49182;50.788;7.318;2022-07-23T01:59:48;100954.69;;;17.94;79.08
43125;BME280;49182;50.788;7.318;2022-07-23T02:02:18;100965.69;;;17.99;79.21
43125;BME280;49182;50.788;7.318;2022-07-23T02:04:45;100969.38;;;17.98;79.63
43125;BME280;49182;50.788;7.318;2022-07-23T02:07:15;100966.91;;;17.88;80.14
43125;BME280;49182;50.788;7.318;2022-07-23T02:09:42;100974.88;;;17.96;79.94
43125;BME280;49182;50.788;7.318;2022-07-23T02:12:12;100974.72;;;17.98;79.58
43125;BME280;49182;50.788;7.318;2022-07-23T02:14:39;100968.72;;;17.96;79.60
43125;BME280;49182;50.788;7.318;2022-07-23T02:17:07;100967.69;;;17.97;79.47
43125;BME280;49182;50.788;7.318;2022-07-23T02:19:34;100961.34;;;17.98;79.08
43125;BME280;49182;50.788;7.318;2022-07-23T02:22:01;100961.19;;;17.99;78.85
43125;BME280;49182;50.788;7.318;2022-07-23T02:24:27;100962.09;;;17.84;78.59
43125;BME280;49182;50.788;7.318;2022-07-23T02:26:54;100964.94;;;17.82;79.05
43125;BME280;49182;50.788;7.318;2022-07-23T02:29:22;100961.56;;;17.88;78.71
43125;BME280;49182;50.788;7.318;2022-07-23T02:31:49;100967.56;;;17.90;78.79
43125;BME280;49182;50.788;7.318;2022-07-23T02:34:16;100966.38;;;17.93;78.47
43125;BME280;49182;50.788;7.318;2022-07-23T02:36:42;100961.88;;;17.93;78.49
43125;BME280;49182;50.788;7.318;2022-07-23T02:39:09;100961.72;;;17.95;78.72
43125;BME280;49182;50.788;7.318;2022-07-23T02:41:37;100957.84;;;17.97;78.98
43125;BME280;49182;50.788;7.318;2022-07-23T02:44:04;100961.19;;;17.99;79.23
43125;BME280;49182;50.788;7.318;2022-07-23T02:46:37;100946.00;;;17.92;79.12
43125;BME280;49182;50.788;7.318;2022-07-23T02:49:05;100932.19;;;17.88;79.11
43125;BME280;49182;50.788;7.318;2022-07-23T02:51:33;100945.84;;;17.93;79.23
43125;BME280;49182;50.788;7.318;2022-07-23T02:54:03;100953.38;;;17.90;79.44
43125;BME280;49182;50.788;7.318;2022-07-23T02:56:30;100945.72;;;17.87;79.39
43125;BME280;49182;50.788;7.318;2022-07-23T02:58:57;100953.38;;;17.90;79.47
43125;BME280;49182;50.788;7.318;2022-07-23T03:01:24;100956.06;;;17.90;79.78
43125;BME280;49182;50.788;7.318;2022-07-23T03:03:52;100959.53;;;17.90;79.84
43125;BME280;49182;50.788;7.318;2022-07-23T03:06:21;100959.72;;;17.89;79.94
43125;BME280;49182;50.788;7.318;2022-07-23T03:08:49;100958.91;;;17.88;79.98
43125;BME280;49182;50.788;7.318;2022-07-23T03:11:15;100951.75;;;17.81;79.82
43125;BME280;49182;50.788;7.318;2022-07-23T03:13:43;100961.72;;;17.87;79.93
43125;BME280;49182;50.788;7.318;2022-07-23T03:16:10;100959.22;;;17.85;80.28
43125;BME280;49182;50.788;7.318;2022-07-23T03:18:37;100966.41;;;17.85;80.21
43125;BME280;49182;50.788;7.318;2022-07-23T03:21:07;100954.09;;;17.84;80.32
43125;BME280;49182;50.788;7.318;2022-07-23T03:23:36;100960.75;;;17.79;80.49
43125;BME280;49182;50.788;7.318;2022-07-23T03:26:03;100967.28;;;17.77;80.63
43125;BME280;49182;50.788;7.318;2022-07-23T03:28:30;100956.31;;;17.64;80.46
43125;BME280;49182;50.788;7.318;2022-07-23T03:30:56;100959.63;;;17.66;80.54
43125;BME280;49182;50.788;7.318;2022-07-23T03:33:23;100964.31;;;17.64;80.79
43125;BME280;49182;50.788;7.318;2022-07-23T03:35:50;100966.81;;;17.57;80.30
43125;BME280;49182;50.788;7.318;2022-07-23T03:38:23;100962.78;;;17.53;80.43
43125;BME280;49182;50.788;7.318;2022-07-23T03:40:49;100959.81;;;17.48;80.80
43125;BME280;49182;50.788;7.318;2022-07-23T03:43:16;100960.31;;;17.44;81.07
43125;BME280;49182;50.788;7.318;2022-07-23T03:45:44;100948.03;;;17.26;81.38
43125;BME280;49182;50.788;7.318;2022-07-23T03:48:10;100967.34;;;17.28;81.28
43125;BME280;49182;50.788;7.318;2022-07-23T03:50:37;100967.88;;;17.24;81.82
43125;BME280;49182;50.788;7.318;2022-07-23T03:53:04;100959.38;;;17.12;82.17
43125;BME280;49182;50.788;7.318;2022-07-23T03:55:35;100971.88;;;17.12;82.34
43125;BME280;49182;50.788;7.318;2022-07-23T03:58:02;100975.22;;;17.06;82.38
43125;BME280;49182;50.788;7.318;2022-07-23T04:00:29;100969.56;;;17.01;82.44
43125;BME280;49182;50.788;7.318;2022-07-23T04:02:55;100977.22;;;16.95;82.40
43125;BME280;49182;50.788;7.318;2022-07-23T04:05:22;100985.56;;;16.92;82.48
43125;BME280;49182;50.788;7.318;2022-07-23T04:07:54;100985.91;;;16.89;82.51
43125;BME280;49182;50.788;7.318;2022-07-23T04:10:21;100994.41;;;16.85;82.86
43125;BME280;49182;50.788;7.318;2022-07-23T04:12:49;101000.06;;;16.82;82.62
43125;BME280;49182;50.788;7.318;2022-07-23T04:15:15;100989.72;;;16.71;82.82
43125;BME280;49182;50.788;7.318;2022-07-23T04:17:42;100998.03;;;16.76;82.87
43125;BME280;49182;50.788;7.318;2022-07-23T04:20:10;101003.53;;;16.74;83.19
43125;BME280;49182;50.788;7.318;2022-07-23T04:22:44;101009.88;;;16.73;83.28
43125;BME280;49182;50.788;7.318;2022-07-23T04:25:11;101007.72;;;16.77;83.76
43125;BME280;49182;50.788;7.318;2022-07-23T04:27:38;101004.03;;;16.86;83.58
43125;BME280;49182;50.788;7.318;2022-07-23T04:30:08;100992.91;;;16.90;83.36
43125;BME280;49182;50.788;7.318;2022-07-23T04:32:35;101007.25;;;17.14;82.98
43125;BME280;49182;50.788;7.318;2022-07-23T04:35:08;100999.41;;;17.20;82.45
43125;BME280;49182;50.788;7.318;2022-07-23T04:37:35;101015.56;;;17.43;81.93
43125;BME280;49182;50.788;7.318;2022-07-23T04:40:02;101007.72;;;17.50;81.57
43125;BME280;49182;50.788;7.318;2022-07-23T04:42:29;101015.38;;;17.69;80.69
43125;BME280;49182;50.788;7.318;2022-07-23T04:44:55;101026.47;;;17.97;80.00
43125;BME280;49182;50.788;7.318;2022-07-23T04:47:24;101025.94;;;18.09;78.93
43125;BME280;49182;50.788;7.318;2022-07-23T04:49:55;101026.59;;;18.19;78.19
43125;BME280;49182;50.788;7.318;2022-07-23T04:52:22;101034.53;;;18.28;77.92
43125;BME280;49182;50.788;7.318;2022-07-23T04:54:49;101032.22;;;18.33;77.68
43125;BME280;49182;50.788;7.318;2022-07-23T04:57:16;101033.22;;;18.32;77.20
43125;BME280;49182;50.788;7.318;2022-07-23T04:59:42;101033.53;;;18.29;77.22
43125;BME280;49182;50.788;7.318;2022-07-23T05:02:10;101034.25;;;18.23;77.65
43125;BME280;49182;50.788;7.318;2022-07-23T05:04:39;101042.31;;;18.14;77.95
43125;BME280;49182;50.788;7.318;2022-07-23T05:07:05;101042.47;;;18.13;78.06
43125;BME280;49182;50.788;7.318;2022-07-23T05:09:33;101042.81;;;18.10;78.55
43125;BME280;49182;50.788;7.318;2022-07-23T05:12:00;101043.63;;;18.10;78.67
43125;BME280;49182;50.788;7.318;2022-07-23T05:14:27;101041.63;;;18.12;78.74
43125;BME280;49182;50.788;7.318;2022-07-23T05:16:53;101036.63;;;18.09;78.99
43125;BME280;49182;50.788;7.318;2022-07-23T05:19:22;101033.81;;;18.03;79.18
43125;BME280;49182;50.788;7.318;2022-07-23T05:21:53;101040.28;;;18.08;79.57
43125;BME280;49182;50.788;7.318;2022-07-23T05:24:20;101045.97;;;18.13;79.72
43125;BME280;49182;50.788;7.318;2022-07-23T05:26:46;101042.13;;;18.16;80.30
43125;BME280;49182;50.788;7.318;2022-07-23T05:29:13;101041.63;;;18.21;80.52
43125;BME280;49182;50.788;7.318;2022-07-23T05:31:39;101044.41;;;18.27;80.56
43125;BME280;49182;50.788;7.318;2022-07-23T05:34:07;101043.53;;;18.35;80.71
43125;BME280;49182;50.788;7.318;2022-07-23T05:36:35;101050.53;;;18.44;80.72
43125;BME280;49182;50.788;7.318;2022-07-23T05:39:03;101051.50;;;18.51;80.36
43125;BME280;49182;50.788;7.318;2022-07-23T05:41:34;101053.50;;;18.57;80.32
43125;BME280;49182;50.788;7.318;2022-07-23T05:44:02;101060.00;;;18.63;80.45
43125;BME280;49182;50.788;7.318;2022-07-23T05:46:31;101056.41;;;18.70;79.71
43125;BME280;49182;50.788;7.318;2022-07-23T05:49:03;101062.81;;;18.69;77.80
43125;BME280;49182;50.788;7.318;2022-07-23T05:51:49;101065.75;;;18.35;78.37
43125;BME280;49182;50.788;7.318;2022-07-23T05:54:25;101070.00;;;18.22;79.18
43125;BME280;49182;50.788;7.318;2022-07-23T05:56:51;101070.81;;;18.22;79.15
43125;BME280;49182;50.788;7.318;2022-07-23T05:59:18;101063.13;;;18.27;79.59
43125;BME280;49182;50.788;7.318;2022-07-23T06:01:45;101070.31;;;18.27;79.63
43125;BME280;49182;50.788;7.318;2022-07-23T06:04:15;101070.31;;;18.27;79.78
43125;BME280;49182;50.788;7.318;2022-07-23T06:06:51;101073.78;;;18.35;79.71
43125;BME280;49182;50.788;7.318;2022-07-23T06:09:18;101068.25;;;18.45;79.72
43125;BME280;49182;50.788;7.318;2022-07-23T06:11:46;101072.53;;;18.54;79.39
43125;BME280;49182;50.788;7.318;2022-07-23T06:14:13;101077.22;;;18.60;79.10
43125;BME280;49182;50.788;7.318;2022-07-23T06:16:47;101073.06;;;18.57;78.84
43125;BME280;49182;50.788;7.318;2022-07-23T06:19:14;101068.53;;;18.58;78.50
43125;BME280;49182;50.788;7.318;2022-07-23T06:21:41;101075.56;;;18.51;78.36
43125;BME280;49182;50.788;7.318;2022-07-23T06:24:14;101070.03;;;18.52;78.42
43125;BME280;49182;50.788;7.318;2022-07-23T06:26:40;101073.38;;;18.54;78.43
43125;BME280;49182;50.788;7.318;2022-07-23T06:29:09;101079.72;;;18.62;78.27
43125;BME280;49182;50.788;7.318;2022-07-23T06:31:35;101076.03;;;18.54;77.67
43125;BME280;49182;50.788;7.318;2022-07-23T06:34:02;101073.88;;;18.58;77.99
43125;BME280;49182;50.788;7.318;2022-07-23T06:36:29;101080.31;;;18.72;78.06
43125;BME280;49182;50.788;7.318;2022-07-23T06:38:55;101084.63;;;18.81;77.93
43125;BME280;49182;50.788;7.318;2022-07-23T06:41:23;101088.63;;;18.85;77.89
43125;BME280;49182;50.788;7.318;2022-07-23T06:43:50;101077.22;;;18.91;76.85
43125;BME280;49182;50.788;7.318;2022-07-23T06:46:18;101086.31;;;19.05;75.75
43125;BME280;49182;50.788;7.318;2022-07-23T06:48:45;101084.66;;;19.04;75.79
43125;BME280;49182;50.788;7.318;2022-07-23T06:51:11;101079.75;;;18.84;75.26
43125;BME280;49182;50.788;7.318;2022-07-23T06:53:38;101101.28;;;18.91;75.31
43125;BME280;49182;50.788;7.318;2022-07-23T06:56:05;101098.69;;;19.06;75.31
43125;BME280;49182;50.788;7.318;2022-07-23T06:58:32;101101.97;;;19.16;75.39
43125;BME280;49182;50.788;7.318;2022-07-23T07:00:59;101091.81;;;19.11;74.30
43125;BME280;49182;50.788;7.318;2022-07-23T07:03:27;101103.38;;;19.26;74.54
43125;BME280;49182;50.788;7.318;2022-07-23T07:05:54;101109.00;;;19.17;73.88
43125;BME280;49182;50.788;7.318;2022-07-23T07:08:20;101104.75;;;19.22;74.25
43125;BME280;49182;50.788;7.318;2022-07-23T07:10:47;101112.53;;;19.32;73.67
43125;BME280;49182;50.788;7.318;2022-07-23T07:13:14;101115.47;;;19.45;74.05
43125;BME280;49182;50.788;7.318;2022-07-23T07:15:40;101103.88;;;19.53;73.49
43125;BME280;49182;50.788;7.318;2022-07-23T07:18:07;101110.13;;;19.68;73.31
43125;BME280;49182;50.788;7.318;2022-07-23T07:20:36;101109.41;;;19.51;70.71
43125;BME280;49182;50.788;7.318;2022-07-23T07:23:02;101101.97;;;19.61;71.68
43125;BME280;49182;50.788;7.318;2022-07-23T07:25:29;101114.44;;;19.69;70.86
43125;BME280;49182;50.788;7.318;2022-07-23T07:27:56;101107.22;;;19.92;67.70
43125;BME280;49182;50.788;7.318;2022-07-23T07:30:23;101088.81;;;19.89;68.24
43125;BME280;49182;50.788;7.318;2022-07-23T07:32:50;101106.19;;;20.08;67.44
43125;BME280;49182;50.788;7.318;2022-07-23T07:35:22;101115.44;;;20.20;68.19
43125;BME280;49182;50.788;7.318;2022-07-23T07:37:51;101091.50;;;20.18;67.80
43125;BME280;49182;50.788;7.318;2022-07-23T07:40:18;101103.09;;;20.34;67.91
43125;BME280;49182;50.788;7.318;2022-07-23T07:42:45;101103.38;;;20.39;66.03
43125;BME280;49182;50.788;7.318;2022-07-23T07:45:12;101115.84;;;20.46;64.26
43125;BME280;49182;50.788;7.318;2022-07-23T07:47:38;101123.97;;;20.68;62.74
43125;BME280;49182;50.788;7.318;2022-07-23T07:50:05;101134.50;;;20.69;62.94
43125;BME280;49182;50.788;7.318;2022-07-23T07:52:32;101131.91;;;20.76;63.65
43125;BME280;49182;50.788;7.318;2022-07-23T07:55:00;101131.47;;;20.72;63.07
43125;BME280;49182;50.788;7.318;2022-07-23T07:57:27;101133.00;;;20.81;62.82
43125;BME280;49182;50.788;7.318;2022-07-23T07:59:57;101142.44;;;20.92;62.11
43125;BME280;49182;50.788;7.318;2022-07-23T08:02:42;101135.44;;;21.12;61.26
43125;BME280;49182;50.788;7.318;2022-07-23T08:05:09;101138.63;;;21.16;59.53
43125;BME280;49182;50.788;7.318;2022-07-23T08:07:36;101131.53;;;21.15;60.40
43125;BME280;49182;50.788;7.318;2022-07-23T08:10:06;101131.47;;;21.23;61.33
43125;BME280;49182;50.788;7.318;2022-07-23T08:12:40;101138.06;;;21.42;58.93
43125;BME280;49182;50.788;7.318;2022-07-23T08:15:08;101147.50;;;21.37;59.30
43125;BME280;49182;50.788;7.318;2022-07-23T08:17:40;101150.66;;;21.41;57.84
43125;BME280;49182;50.788;7.318;2022-07-23T08:20:09;101138.06;;;21.42;59.06
43125;BME280;49182;50.788;7.318;2022-07-23T08:22:47;101126.47;;;21.41;58.55
43125;BME280;49182;50.788;7.318;2022-07-23T08:25:19;101124.03;;;21.46;59.45
43125;BME280;49182;50.788;7.318;2022-07-23T08:27:46;101145.97;;;21.71;58.87
43125;BME280;49182;50.788;7.318;2022-07-23T08:30:13;101148.25;;;21.74;58.32
43125;BME280;49182;50.788;7.318;2022-07-23T08:32:51;101152.31;;;21.91;57.75
43125;BME280;49182;50.788;7.318;2022-07-23T08:35:22;101157.31;;;21.94;58.08
43125;BME280;49182;50.788;7.318;2022-07-23T08:37:49;101151.25;;;21.86;58.23
43125;BME280;49182;50.788;7.318;2022-07-23T08:40:17;101156.56;;;21.79;58.28
43125;BME280;49182;50.788;7.318;2022-07-23T08:42:46;101159.16;;;21.94;58.17
43125;BME280;49182;50.788;7.318;2022-07-23T08:45:16;101164.25;;;22.03;57.90
43125;BME280;49182;50.788;7.318;2022-07-23T08:47:50;101155.59;;;21.87;56.43
43125;BME280;49182;50.788;7.318;2022-07-23T08:50:19;101169.28;;;21.92;56.40
43125;BME280;49182;50.788;7.318;2022-07-23T08:52:46;101174.22;;;22.09;56.75
43125;BME280;49182;50.788;7.318;2022-07-23T08:55:17;101162.97;;;22.27;56.62
43125;BME280;49182;50.788;7.318;2022-07-23T08:57:45;101168.41;;;22.34;56.39
43125;BME280;49182;50.788;7.318;2022-07-23T09:00:14;101170.06;;;22.41;55.63
43125;BME280;49182;50.788;7.318;2022-07-23T09:02:42;101175.16;;;22.57;56.19
43125;BME280;49182;50.788;7.318;2022-07-23T09:05:11;101170.03;;;22.69;56.91
43125;BME280;49182;50.788;7.318;2022-07-23T09:08:09;101175.97;;;22.92;55.56
43125;BME280;49182;50.788;7.318;2022-07-23T09:10:51;101174.97;;;23.00;53.40
43125;BME280;49182;50.788;7.318;2022-07-23T09:13:33;101182.19;;;22.93;53.90
43125;BME280;49182;50.788;7.318;2022-07-23T09:16:03;101175.41;;;23.10;53.68
43125;BME280;49182;50.788;7.318;2022-07-23T09:18:36;101160.50;;;23.14;53.73
43125;BME280;49182;50.788;7.318;2022-07-23T09:21:14;101159.09;;;23.25;53.43
43125;BME280;49182;50.788;7.318;2022-07-23T09:23:45;101159.31;;;23.30;53.43
43125;BME280;49182;50.788;7.318;2022-07-23T09:26:18;101146.38;;;23.06;51.94
43125;BME280;49182;50.788;7.318;2022-07-23T09:28:50;101176.25;;;23.17;52.26
43125;BME280;49182;50.788;7.318;2022-07-23T09:31:17;101180.38;;;23.07;51.65
43125;BME280;49182;50.788;7.318;2022-07-23T09:33:44;101183.06;;;23.07;52.70
43125;BME280;49182;50.788;7.318;2022-07-23T09:36:11;101177.69;;;23.07;51.94
43125;BME280;49182;50.788;7.318;2022-07-23T09:38:49;101188.25;;;23.15;51.51
43125;BME280;49182;50.788;7.318;2022-07-23T09:41:17;101177.84;;;22.98;51.59
43125;BME280;49182;50.788;7.318;2022-07-23T09:43:44;101177.84;;;22.98;51.38
43125;BME280;49182;50.788;7.318;2022-07-23T09:46:18;101175.44;;;23.23;53.13
43125;BME280;49182;50.788;7.318;2022-07-23T09:48:45;101180.63;;;23.18;51.22
43125;BME280;49182;50.788;7.318;2022-07-23T09:51:12;101189.94;;;23.22;50.99
43125;BME280;49182;50.788;7.318;2022-07-23T09:53:39;101179.06;;;23.50;50.43
43125;BME280;49182;50.788;7.318;2022-07-23T09:56:07;101185.91;;;23.59;50.50
43125;BME280;49182;50.788;7.318;2022-07-23T09:58:38;101174.88;;;23.41;49.82
43125;BME280;49182;50.788;7.318;2022-07-23T10:01:06;101165.16;;;23.53;50.92
43125;BME280;49182;50.788;7.318;2022-07-23T10:03:33;101174.53;;;23.57;50.64
43125;BME280;49182;50.788;7.318;2022-07-23T10:06:34;101166.84;;;23.74;50.82
43125;BME280;49182;50.788;7.318;2022-07-23T10:09:24;101173.69;;;23.96;49.27
43125;BME280;49182;50.788;7.318;2022-07-23T10:12:19;101175.34;;;23.91;46.71
43125;BME280;49182;50.788;7.318;2022-07-23T10:14:56;101172.66;;;23.91;46.72
43125;BME280;49182;50.788;7.318;2022-07-23T10:17:23;101176.00;;;23.86;48.16
43125;BME280;49182;50.788;7.318;2022-07-23T10:19:49;101168.28;;;23.83;47.95
43125;BME280;49182;50.788;7.318;2022-07-23T10:22:20;101163.09;;;23.95;48.58
43125;BME280;49182;50.788;7.318;2022-07-23T10:24:56;101167.06;;;24.05;48.08
43125;BME280;49182;50.788;7.318;2022-07-23T10:27:53;101160.00;;;24.04;47.83
43125;BME280;49182;50.788;7.318;2022-07-23T10:30:29;101166.22;;;24.31;45.94
43125;BME280;49182;50.788;7.318;2022-07-23T10:33:09;101164.16;;;24.20;45.92
43125;BME280;49182;50.788;7.318;2022-07-23T10:35:44;101163.31;;;24.26;48.44
43125;BME280;49182;50.788;7.318;2022-07-23T10:38:18;101153.78;;;24.30;47.27
43125;BME280;49182;50.788;7.318;2022-07-23T10:40:57;101156.22;;;24.45;47.43
43125;BME280;49182;50.788;7.318;2022-07-23T10:43:26;101154.53;;;24.50;45.54
43125;BME280;49182;50.788;7.318;2022-07-23T10:45:55;101148.31;;;24.50;45.31
43125;BME280;49182;50.788;7.318;2022-07-23T10:48:26;101157.22;;;24.50;45.36
43125;BME280;49182;50.788;7.318;2022-07-23T10:51:06;101151.78;;;24.64;46.90
43125;BME280;49182;50.788;7.318;2022-07-23T10:54:00;101151.91;;;24.88;44.04
43125;BME280;49182;50.788;7.318;2022-07-23T10:56:49;101146.50;;;24.88;44.75
43125;BME280;49182;50.788;7.318;2022-07-23T10:59:18;101159.19;;;24.81;42.57
43125;BME280;49182;50.788;7.318;2022-07-23T11:01:44;101155.50;;;24.69;43.07
43125;BME280;49182;50.788;7.318;2022-07-23T11:04:11;101150.50;;;24.79;43.22
43125;BME280;49182;50.788;7.318;2022-07-23T11:07:06;101138.72;;;25.12;42.29
43125;BME280;49182;50.788;7.318;2022-07-23T11:09:39;101127.69;;;25.13;42.89
43125;BME280;49182;50.788;7.318;2022-07-23T11:12:31;101146.50;;;24.95;42.54
43125;BME280;49182;50.788;7.318;2022-07-23T11:15:00;101151.91;;;24.88;45.21
43125;BME280;49182;50.788;7.318;2022-07-23T11:17:27;101129.88;;;24.98;45.91
43125;BME280;49182;50.788;7.318;2022-07-23T11:20:15;101142.53;;;25.35;45.73
43125;BME280;49182;50.788;7.318;2022-07-23T11:22:48;101141.81;;;25.47;45.14
43125;BME280;49182;50.788;7.318;2022-07-23T11:25:30;101136.78;;;25.57;45.38
43125;BME280;49182;50.788;7.318;2022-07-23T11:28:09;101135.53;;;25.53;44.43
43125;BME280;49182;50.788;7.318;2022-07-23T11:30:42;101138.78;;;25.36;44.11
43125;BME280;49182;50.788;7.318;2022-07-23T11:33:21;101133.84;;;25.58;41.50
43125;BME280;49182;50.788;7.318;2022-07-23T11:35:50;101145.16;;;25.49;41.59
43125;BME280;49182;50.788;7.318;2022-07-23T11:38:25;101130.56;;;25.50;41.92
43125;BME280;49182;50.788;7.318;2022-07-23T11:40:53;101143.84;;;25.58;41.45
43125;BME280;49182;50.788;7.318;2022-07-23T11:43:21;101139.28;;;25.58;41.02
43125;BME280;49182;50.788;7.318;2022-07-23T11:45:52;101137.34;;;25.65;40.63
43125;BME280;49182;50.788;7.318;2022-07-23T11:48:21;101134.44;;;25.67;40.54
43125;BME280;49182;50.788;7.318;2022-07-23T11:50:49;101129.84;;;25.67;40.33
43125;BME280;49182;50.788;7.318;2022-07-23T11:53:21;101133.69;;;25.78;40.26
43125;BME280;49182;50.788;7.318;2022-07-23T11:55:49;101120.88;;;25.92;42.71
43125;BME280;49182;50.788;7.318;2022-07-23T11:58:15;101139.78;;;25.98;38.91
43125;BME280;49182;50.788;7.318;2022-07-23T12:00:42;101139.53;;;26.25;39.64
43125;BME280;49182;50.788;7.318;2022-07-23T12:03:10;101134.09;;;26.43;38.81
43125;BME280;49182;50.788;7.318;2022-07-23T12:05:38;101122.69;;;26.59;39.42
43125;BME280;49182;50.788;7.318;2022-07-23T12:08:07;101100.41;;;26.57;39.80
43125;BME280;49182;50.788;7.318;2022-07-23T12:10:37;101120.53;;;26.79;39.18
43125;BME280;49182;50.788;7.318;2022-07-23T12:13:05;101110.66;;;26.85;38.88
43125;BME280;49182;50.788;7.318;2022-07-23T12:15:35;101126.25;;;27.08;38.13
43125;BME280;49182;50.788;7.318;2022-07-23T12:18:02;101122.59;;;27.14;38.71
43125;BME280;49182;50.788;7.318;2022-07-23T12:20:32;101115.56;;;27.24;37.10
43125;BME280;49182;50.788;7.318;2022-07-23T12:23:01;101127.25;;;27.25;36.94
43125;BME280;49182;50.788;7.318;2022-07-23T12:25:30;101115.66;;;27.18;38.91
43125;BME280;49182;50.788;7.318;2022-07-23T12:28:00;101116.16;;;27.26;38.46
43125;BME280;49182;50.788;7.318;2022-07-23T12:30:29;101105.34;;;27.38;38.47
43125;BME280;49182;50.788;7.318;2022-07-23T12:33:01;101108.06;;;27.50;37.75
43125;BME280;49182;50.788;7.318;2022-07-23T12:35:35;101116.25;;;27.73;38.32
43125;BME280;49182;50.788;7.318;2022-07-23T12:38:03;101119.69;;;27.80;38.45
43125;BME280;49182;50.788;7.318;2022-07-23T12:40:32;101118.88;;;27.80;37.67
43125;BME280;49182;50.788;7.318;2022-07-23T12:43:00;101107.88;;;27.63;36.37
43125;BME280;49182;50.788;7.318;2022-07-23T12:45:41;101114.09;;;27.40;36.97
43125;BME280;49182;50.788;7.318;2022-07-23T12:48:14;101119.84;;;27.44;37.97
43125;BME280;49182;50.788;7.318;2022-07-23T12:50:47;101122.69;;;27.49;38.09
43125;BME280;49182;50.788;7.318;2022-07-23T12:53:16;101121.56;;;27.56;38.29
43125;BME280;49182;50.788;7.318;2022-07-23T12:55:50;101121.97;;;27.42;37.33
43125;BME280;49182;50.788;7.318;2022-07-23T12:58:43;101123.69;;;27.77;38.11
43125;BME280;49182;50.788;7.318;2022-07-23T13:01:22;101129.16;;;28.01;37.97
43125;BME280;49182;50.788;7.318;2022-07-23T13:03:56;101133.66;;;28.19;37.20